Time;durP1;ratioP1;P1;durP2;ratioP2;P2;SDS_P1;SDS_P2;PMS_P1;PMS_P2;Temp;Humidity;BMP_temperature;BMP_pressure;BME280_temperature;BME280_humidity;BME280_pressure;Samples;Min_cycle;Max_cycle;Signal;HPM_P1;HPM_P2
2023/09/14 00:01:45;;;;;;;2.23;2.13;;;25.30;54.50;;;;;;5050830;28;20475;-78
2023/09/14 00:04:13;;;;;;;2.70;2.40;;;25.30;54.50;;;;;;5050728;28;20471;-78
2023/09/14 00:06:43;;;;;;;3.03;2.50;;;25.20;54.40;;;;;;5051049;28;20584;-78
2023/09/14 00:09:11;;;;;;;2.60;2.40;;;25.20;54.60;;;;;;5051164;28;20466;-78
2023/09/14 00:11:39;;;;;;;2.53;2.20;;;25.20;54.50;;;;;;5051657;28;20456;-77
2023/09/14 00:14:07;;;;;;;2.60;2.20;;;25.20;54.70;;;;;;5050607;28;20547;-78
2023/09/14 00:16:35;;;;;;;2.70;2.47;;;25.20;54.70;;;;;;5050899;28;20417;-76
2023/09/14 00:19:03;;;;;;;3.60;2.87;;;25.20;54.70;;;;;;5050628;28;20420;-79
2023/09/14 00:21:31;;;;;;;2.33;2.20;;;25.10;54.60;;;;;;5051226;28;20445;-78
2023/09/14 00:24:05;;;;;;;2.80;2.60;;;25.10;54.50;;;;;;5051082;28;20462;-78
2023/09/14 00:26:35;;;;;;;3.07;2.73;;;25.00;54.50;;;;;;5050188;28;20446;-77
2023/09/14 00:29:03;;;;;;;2.63;2.40;;;25.00;54.60;;;;;;5050980;28;20549;-77
2023/09/14 00:31:34;;;;;;;2.13;2.00;;;25.00;54.80;;;;;;5051941;28;20447;-78
2023/09/14 00:34:01;;;;;;;2.27;2.17;;;25.00;54.80;;;;;;5053850;28;20425;-77
2023/09/14 00:36:30;;;;;;;2.37;2.03;;;25.00;54.60;;;;;;5054676;28;20412;-79
2023/09/14 00:38:57;;;;;;;2.50;2.30;;;25.00;54.80;;;;;;5054739;28;20426;-78
2023/09/14 00:41:30;;;;;;;2.30;2.13;;;25.00;54.60;;;;;;5054133;28;20478;-78
2023/09/14 00:43:58;;;;;;;2.40;2.20;;;24.90;54.60;;;;;;5053974;28;20483;-78
2023/09/14 00:46:26;;;;;;;2.63;2.43;;;24.90;54.60;;;;;;5054500;28;20956;-77
2023/09/14 00:48:55;;;;;;;2.70;2.30;;;24.90;54.60;;;;;;5061402;28;20433;-79
2023/09/14 00:51:23;;;;;;;3.83;2.27;;;24.80;54.60;;;;;;5070996;28;20462;-78
2023/09/14 00:53:52;;;;;;;1.70;1.60;;;24.80;54.80;;;;;;5070043;28;20436;-79
2023/09/14 00:56:20;;;;;;;2.43;2.23;;;24.90;54.80;;;;;;5065649;28;20470;-78
2023/09/14 00:58:49;;;;;;;2.23;2.13;;;24.80;54.70;;;;;;5055724;28;20464;-79
2023/09/14 01:01:17;;;;;;;2.50;1.90;;;24.90;54.80;;;;;;5054725;28;20463;-78
2023/09/14 01:03:45;;;;;;;2.67;2.30;;;24.80;54.60;;;;;;5054545;28;20528;-78
2023/09/14 01:06:14;;;;;;;2.23;2.03;;;24.80;54.80;;;;;;5053908;28;20446;-78
2023/09/14 01:08:42;;;;;;;2.70;2.30;;;24.80;54.80;;;;;;5053321;28;20917;-78
2023/09/14 01:11:11;;;;;;;2.90;2.60;;;24.80;54.70;;;;;;5053988;28;20425;-78
2023/09/14 01:13:43;;;;;;;2.47;2.23;;;24.70;54.70;;;;;;5053414;28;20557;-78
2023/09/14 01:16:16;;;;;;;10.20;8.00;;;24.70;54.80;;;;;;5053855;28;20446;-78
2023/09/14 01:18:47;;;;;;;12.27;7.87;;;24.70;54.70;;;;;;5053265;28;20436;-78
2023/09/14 01:21:54;;;;;;;11.37;8.73;;;24.70;54.60;;;;;;5053674;28;20478;-78
2023/09/14 01:24:26;;;;;;;11.43;7.77;;;24.60;54.60;;;;;;4953393;29;20449;-77
2023/09/14 01:26:56;;;;;;;9.20;7.27;;;24.60;54.70;;;;;;5033795;28;20518;-77
2023/09/14 01:29:24;;;;;;;9.80;8.07;;;24.60;54.70;;;;;;5052975;28;20474;-77
2023/09/14 01:31:52;;;;;;;11.20;8.17;;;24.60;54.70;;;;;;5053309;28;20438;-78
2023/09/14 01:34:21;;;;;;;10.00;8.33;;;24.60;54.80;;;;;;5052662;28;20494;-77
2023/09/14 01:36:51;;;;;;;12.00;8.87;;;24.50;54.70;;;;;;5053086;28;20500;-78
2023/09/14 01:39:19;;;;;;;12.37;8.87;;;24.60;55.00;;;;;;5053524;28;20806;-78
2023/09/14 01:41:54;;;;;;;10.67;8.13;;;24.60;54.80;;;;;;5053432;28;20409;-77
2023/09/14 01:44:25;;;;;;;11.27;8.77;;;24.50;54.80;;;;;;5052185;28;20472;-77
2023/09/14 01:46:53;;;;;;;11.53;8.77;;;24.60;55.00;;;;;;5055351;28;20496;-79
2023/09/14 01:49:21;;;;;;;11.60;9.13;;;24.60;55.00;;;;;;5054231;28;20453;-79
2023/09/14 01:51:49;;;;;;;12.87;8.90;;;24.50;54.80;;;;;;5056710;28;20474;-79
2023/09/14 01:54:17;;;;;;;12.50;9.17;;;24.50;55.00;;;;;;5056408;28;20459;-79
2023/09/14 01:56:45;;;;;;;11.57;9.50;;;24.50;55.00;;;;;;5055409;28;20466;-79
2023/09/14 01:59:14;;;;;;;10.73;9.00;;;24.50;55.00;;;;;;5055285;28;20481;-78
2023/09/14 02:01:43;;;;;;;12.10;8.97;;;24.50;55.00;;;;;;5054754;28;20445;-78
2023/09/14 02:04:11;;;;;;;12.27;8.27;;;24.50;55.10;;;;;;5053658;28;20429;-78
2023/09/14 02:06:39;;;;;;;10.40;8.43;;;24.50;55.20;;;;;;5055256;28;20420;-78
2023/09/14 02:09:07;;;;;;;14.10;8.77;;;24.50;55.20;;;;;;5056113;28;20478;-78
2023/09/14 02:11:35;;;;;;;11.83;8.77;;;24.50;55.20;;;;;;5056560;28;20462;-78
2023/09/14 02:14:03;;;;;;;10.93;8.10;;;24.50;55.20;;;;;;5055724;28;20493;-78
2023/09/14 02:16:31;;;;;;;9.30;8.10;;;24.50;55.20;;;;;;5055314;28;20492;-78
2023/09/14 02:19:01;;;;;;;10.37;7.90;;;24.50;55.10;;;;;;5055261;28;20421;-79
2023/09/14 02:21:29;;;;;;;9.43;7.77;;;24.40;55.20;;;;;;5056166;28;20450;-78
2023/09/14 02:23:58;;;;;;;9.17;7.60;;;24.50;55.30;;;;;;5055169;28;20455;-78
2023/09/14 02:26:25;;;;;;;9.60;7.53;;;24.50;55.30;;;;;;5056073;28;20500;-79
2023/09/14 02:28:54;;;;;;;8.97;7.53;;;24.40;55.20;;;;;;5056019;28;20540;-78
2023/09/14 02:31:22;;;;;;;9.03;7.17;;;24.40;55.20;;;;;;5055929;28;20441;-80
2023/09/14 02:33:50;;;;;;;8.20;7.17;;;24.40;55.30;;;;;;5055678;28;20492;-78
2023/09/14 02:36:21;;;;;;;9.40;6.60;;;24.40;55.50;;;;;;5055370;28;20438;-79
2023/09/14 02:38:49;;;;;;;8.10;6.40;;;24.40;55.30;;;;;;5055399;28;20410;-79
2023/09/14 02:41:18;;;;;;;10.03;7.63;;;24.50;55.50;;;;;;5055345;28;20417;-78
2023/09/14 02:43:45;;;;;;;7.23;6.00;;;24.40;55.30;;;;;;5055053;28;20505;-78
2023/09/14 02:46:14;;;;;;;8.90;6.73;;;24.40;55.50;;;;;;5055268;28;20451;-79
2023/09/14 02:48:42;;;;;;;10.33;6.80;;;24.40;55.60;;;;;;5054865;28;20445;-78
2023/09/14 02:51:11;;;;;;;7.00;6.20;;;24.50;55.50;;;;;;5053857;28;20439;-78
2023/09/14 02:53:40;;;;;;;7.67;6.10;;;24.50;55.50;;;;;;5053131;28;20482;-78
2023/09/14 02:56:09;;;;;;;6.70;6.00;;;24.50;55.20;;;;;;5052765;28;20416;-79
2023/09/14 02:58:37;;;;;;;7.27;6.30;;;24.40;55.50;;;;;;5054491;28;20417;-79
2023/09/14 03:01:09;;;;;;;9.20;6.67;;;24.40;55.50;;;;;;5054287;28;20447;-79
2023/09/14 03:03:37;;;;;;;6.63;6.00;;;24.40;55.60;;;;;;5053636;28;20445;-79
2023/09/14 03:06:06;;;;;;;6.53;5.77;;;24.40;55.70;;;;;;5054290;28;20949;-79
2023/09/14 03:08:34;;;;;;;9.50;5.87;;;24.40;55.50;;;;;;5053449;28;20516;-79
2023/09/14 03:11:04;;;;;;;7.00;5.60;;;24.40;55.70;;;;;;5053657;28;20439;-79
2023/09/14 03:13:32;;;;;;;6.80;6.07;;;24.40;55.40;;;;;;5053133;28;20457;-78
2023/09/14 03:16:00;;;;;;;6.50;5.90;;;24.40;55.60;;;;;;5051951;28;20413;-77
2023/09/14 03:18:28;;;;;;;6.97;5.73;;;24.40;55.70;;;;;;5052072;28;20420;-78
2023/09/14 03:20:57;;;;;;;5.90;5.17;;;24.40;55.60;;;;;;5053712;28;20485;-80
2023/09/14 03:23:25;;;;;;;5.40;4.90;;;24.40;55.70;;;;;;5054479;28;20492;-79
2023/09/14 03:25:53;;;;;;;5.00;4.50;;;24.40;55.80;;;;;;5054076;28;20837;-79
2023/09/14 03:28:22;;;;;;;7.10;6.00;;;24.40;55.60;;;;;;5053520;28;20476;-79
2023/09/14 03:30:51;;;;;;;5.97;5.33;;;24.40;55.70;;;;;;5052675;28;20405;-79
2023/09/14 03:33:19;;;;;;;5.13;4.50;;;24.40;55.60;;;;;;5051650;28;20437;-78
2023/09/14 03:35:47;;;;;;;6.23;4.90;;;24.40;55.70;;;;;;5051903;28;20823;-78
2023/09/14 03:38:18;;;;;;;7.23;4.60;;;24.40;56.40;;;;;;5053066;28;20502;-77
2023/09/14 03:40:46;;;;;;;5.83;5.20;;;24.40;55.70;;;;;;5052619;28;20513;-78
2023/09/14 03:43:14;;;;;;;4.73;4.33;;;24.40;55.60;;;;;;5078056;22;20487;-74
2023/09/14 03:45:43;;;;;;;5.90;5.20;;;24.40;55.70;;;;;;5071326;28;20520;-75
2023/09/14 03:48:12;;;;;;;6.33;4.90;;;24.40;55.60;;;;;;5071365;28;20434;-77
2023/09/14 03:50:40;;;;;;;4.57;4.17;;;24.30;55.60;;;;;;5070872;28;20487;-76
2023/09/14 03:53:09;;;;;;;5.10;4.60;;;24.30;55.80;;;;;;5066422;28;20494;-77
2023/09/14 03:55:37;;;;;;;4.63;4.20;;;24.30;55.90;;;;;;5051186;28;20471;-77
2023/09/14 03:58:06;;;;;;;7.03;4.97;;;24.30;55.60;;;;;;5050916;28;20521;-78
2023/09/14 04:00:33;;;;;;;4.93;4.43;;;24.30;55.70;;;;;;5050823;28;20442;-76
2023/09/14 04:03:03;;;;;;;5.50;5.00;;;24.40;55.90;;;;;;5050898;28;20429;-76
2023/09/14 04:05:31;;;;;;;5.10;4.60;;;24.30;55.70;;;;;;5050266;28;20434;-76
2023/09/14 04:07:59;;;;;;;5.40;4.60;;;24.30;55.70;;;;;;5054483;28;20520;-74
2023/09/14 04:10:27;;;;;;;5.40;4.73;;;24.30;55.80;;;;;;5054733;28;20474;-76
2023/09/14 04:12:58;;;;;;;6.13;5.17;;;24.30;55.80;;;;;;5054978;28;20458;-77
2023/09/14 04:15:26;;;;;;;4.37;4.00;;;24.30;55.70;;;;;;5055095;28;20900;-76
2023/09/14 04:17:55;;;;;;;5.60;4.80;;;24.30;55.70;;;;;;5054954;28;20442;-76
2023/09/14 04:20:24;;;;;;;5.23;4.70;;;24.30;56.40;;;;;;5054951;28;20419;-78
2023/09/14 04:22:53;;;;;;;5.00;4.43;;;24.30;55.60;;;;;;5054937;28;20438;-75
2023/09/14 04:25:20;;;;;;;5.43;4.13;;;24.30;55.60;;;;;;5054962;28;20987;-77
2023/09/14 04:27:48;;;;;;;5.07;4.57;;;24.30;55.70;;;;;;5055184;28;20465;-77
2023/09/14 04:30:16;;;;;;;4.87;4.47;;;24.30;55.90;;;;;;5055232;28;20524;-77
2023/09/14 04:32:44;;;;;;;4.73;4.27;;;24.30;55.70;;;;;;5054593;28;20417;-77
2023/09/14 04:35:12;;;;;;;4.80;4.40;;;24.30;55.70;;;;;;5054462;28;20525;-77
2023/09/14 04:37:42;;;;;;;4.60;4.20;;;24.30;55.60;;;;;;5054444;28;20421;-77
2023/09/14 04:40:11;;;;;;;5.27;4.40;;;24.30;55.70;;;;;;5054510;28;20429;-77
2023/09/14 04:42:39;;;;;;;5.00;4.47;;;24.30;55.70;;;;;;5053970;28;20500;-77
2023/09/14 04:45:08;;;;;;;4.87;4.30;;;24.30;55.60;;;;;;5054409;28;20529;-76
2023/09/14 04:47:36;;;;;;;4.53;4.13;;;24.30;55.70;;;;;;5054475;28;20963;-76
2023/09/14 04:50:05;;;;;;;4.50;4.10;;;24.30;56.30;;;;;;5053771;28;20470;-77
2023/09/14 04:52:33;;;;;;;4.10;3.73;;;24.30;55.80;;;;;;5054118;28;20516;-76
2023/09/14 04:55:04;;;;;;;4.37;3.47;;;24.30;55.70;;;;;;5054494;28;20461;-77
2023/09/14 04:57:32;;;;;;;5.03;4.17;;;24.30;55.80;;;;;;5054747;28;20443;-76
2023/09/14 05:00:00;;;;;;;3.70;3.40;;;24.30;55.60;;;;;;5054066;28;20448;-77
2023/09/14 05:02:29;;;;;;;4.47;4.07;;;24.30;55.80;;;;;;5054242;28;20512;-77
2023/09/14 05:04:57;;;;;;;4.33;3.53;;;24.30;55.90;;;;;;5053760;28;20492;-75
2023/09/14 05:07:25;;;;;;;4.53;4.07;;;24.30;55.80;;;;;;5054049;28;20538;-77
2023/09/14 05:09:54;;;;;;;4.60;3.83;;;24.30;55.60;;;;;;5053281;28;20532;-76
2023/09/14 05:12:23;;;;;;;4.90;3.90;;;24.30;55.80;;;;;;5053933;28;20447;-77
2023/09/14 05:14:52;;;;;;;4.70;4.10;;;24.30;55.80;;;;;;5053650;28;20529;-78
2023/09/14 05:17:20;;;;;;;4.10;3.80;;;24.30;55.60;;;;;;5053043;28;20465;-75
2023/09/14 05:19:48;;;;;;;4.33;3.93;;;24.30;55.70;;;;;;5052900;28;20421;-77
2023/09/14 05:22:16;;;;;;;3.53;3.23;;;24.30;55.60;;;;;;5053834;28;20417;-78
2023/09/14 05:24:45;;;;;;;4.30;3.57;;;24.30;55.60;;;;;;5053366;28;20443;-76
2023/09/14 05:27:13;;;;;;;3.47;3.27;;;24.30;55.60;;;;;;5053867;28;20425;-77
2023/09/14 05:29:44;;;;;;;3.47;3.17;;;24.30;55.60;;;;;;5053488;28;20450;-76
2023/09/14 05:32:12;;;;;;;3.20;3.00;;;24.30;55.50;;;;;;5053570;28;20433;-76
2023/09/14 05:34:40;;;;;;;3.87;3.57;;;24.30;55.60;;;;;;5053344;28;20528;-77
2023/09/14 05:37:09;;;;;;;3.47;3.23;;;24.30;55.50;;;;;;5053366;28;20988;-77
2023/09/14 05:39:37;;;;;;;3.77;3.47;;;24.30;55.50;;;;;;5053602;28;20457;-79
2023/09/14 05:42:05;;;;;;;4.73;3.53;;;24.30;55.40;;;;;;5053303;28;20417;-79
2023/09/14 05:44:34;;;;;;;3.27;3.07;;;24.30;55.50;;;;;;5053215;28;20477;-76
2023/09/14 05:47:03;;;;;;;3.57;3.27;;;24.30;55.60;;;;;;5052814;28;20413;-78
2023/09/14 05:49:32;;;;;;;3.30;3.10;;;24.30;55.40;;;;;;5052628;28;20488;-78
2023/09/14 05:51:59;;;;;;;3.70;3.40;;;24.30;55.20;;;;;;5053369;28;20458;-78
2023/09/14 05:54:28;;;;;;;3.27;3.07;;;24.30;55.30;;;;;;5053162;28;20503;-76
2023/09/14 05:56:56;;;;;;;3.93;3.47;;;24.30;55.40;;;;;;5052721;28;20537;-77
2023/09/14 05:59:24;;;;;;;2.97;2.77;;;24.30;55.50;;;;;;5052630;28;20421;-76
2023/09/14 06:01:59;;;;;;;3.57;3.27;;;24.30;55.40;;;;;;5052804;28;20421;-78
2023/09/14 06:04:29;;;;;;;3.50;3.20;;;24.40;55.60;;;;;;5052929;28;20462;-78
2023/09/14 06:06:57;;;;;;;3.50;3.20;;;24.40;55.40;;;;;;5053557;28;20417;-76
2023/09/14 06:09:26;;;;;;;2.63;2.43;;;24.40;55.40;;;;;;5052764;28;20421;-76
2023/09/14 06:11:54;;;;;;;3.57;3.23;;;24.40;55.40;;;;;;5052476;28;20474;-77
2023/09/14 06:14:22;;;;;;;3.30;3.10;;;24.40;55.20;;;;;;5052705;28;20429;-77
2023/09/14 06:16:50;;;;;;;3.57;3.10;;;24.40;55.30;;;;;;5052686;28;20433;-75
2023/09/14 06:19:18;;;;;;;3.67;3.37;;;24.40;55.40;;;;;;5052642;28;20446;-74
2023/09/14 06:21:48;;;;;;;3.47;3.20;;;24.50;55.40;;;;;;5052194;28;20414;-76
2023/09/14 06:24:17;;;;;;;3.43;3.13;;;24.50;55.30;;;;;;5052496;28;20463;-75
2023/09/14 06:26:45;;;;;;;4.33;3.07;;;24.50;55.30;;;;;;5052024;28;20425;-77
2023/09/14 06:29:16;;;;;;;4.00;3.30;;;24.40;55.20;;;;;;5052030;28;20470;-77
2023/09/14 06:31:44;;;;;;;2.93;2.73;;;24.50;55.30;;;;;;5052043;28;20471;-78
2023/09/14 06:34:12;;;;;;;3.70;3.40;;;24.50;55.10;;;;;;5051508;28;20471;-77
2023/09/14 06:36:41;;;;;;;3.37;3.13;;;24.50;55.20;;;;;;5051703;28;20421;-79
2023/09/14 06:39:12;;;;;;;3.47;3.17;;;24.50;55.00;;;;;;5051889;28;20425;-79
2023/09/14 06:41:40;;;;;;;3.17;2.97;;;24.50;55.50;;;;;;5051835;28;20584;-79
2023/09/14 06:44:08;;;;;;;3.40;3.20;;;24.60;55.10;;;;;;5051648;28;20544;-78
2023/09/14 06:46:36;;;;;;;3.07;2.83;;;24.60;55.20;;;;;;5052486;28;20467;-80
2023/09/14 06:49:04;;;;;;;3.63;3.33;;;24.50;55.00;;;;;;5052497;28;20441;-78
2023/09/14 06:51:32;;;;;;;3.03;2.83;;;24.60;55.00;;;;;;5052227;28;20845;-74
2023/09/14 06:54:00;;;;;;;3.97;3.57;;;24.60;55.00;;;;;;5052106;28;20553;-77
2023/09/14 06:56:30;;;;;;;3.20;3.00;;;24.60;55.10;;;;;;5052663;28;20504;-77
2023/09/14 06:58:57;;;;;;;3.70;3.40;;;24.60;55.00;;;;;;5052060;28;20474;-77
2023/09/14 07:01:25;;;;;;;4.00;3.37;;;24.70;54.90;;;;;;5052108;28;20416;-79
2023/09/14 07:03:53;;;;;;;3.53;3.23;;;24.60;55.00;;;;;;5052059;28;20440;-77
2023/09/14 07:06:21;;;;;;;3.20;2.90;;;24.60;54.90;;;;;;5052209;28;20449;-75
2023/09/14 07:08:49;;;;;;;3.70;3.40;;;24.70;55.00;;;;;;5051927;28;20441;-77
2023/09/14 07:11:17;;;;;;;4.17;3.20;;;24.70;54.90;;;;;;5051575;28;20491;-78
2023/09/14 07:13:46;;;;;;;3.43;3.13;;;24.70;55.00;;;;;;5051749;28;20531;-77
2023/09/14 07:16:14;;;;;;;3.30;3.10;;;24.70;54.80;;;;;;5051682;28;20445;-78
2023/09/14 07:18:42;;;;;;;3.57;3.27;;;24.70;54.90;;;;;;5051806;28;20541;-77
2023/09/14 07:21:11;;;;;;;2.90;2.70;;;24.80;55.10;;;;;;5051956;28;20421;-79
2023/09/14 07:23:39;;;;;;;3.10;2.90;;;24.80;54.80;;;;;;5051562;28;20472;-79
2023/09/14 07:26:08;;;;;;;3.00;2.80;;;24.80;54.90;;;;;;5051475;28;20444;-78
2023/09/14 07:28:37;;;;;;;3.40;2.90;;;24.80;55.00;;;;;;5052367;28;20425;-77
2023/09/14 07:31:08;;;;;;;3.73;3.37;;;24.80;55.30;;;;;;5051828;28;20455;-78
2023/09/14 07:33:36;;;;;;;3.20;2.83;;;24.80;54.70;;;;;;5051486;28;20860;-77
2023/09/14 07:36:04;;;;;;;3.30;3.00;;;24.80;55.00;;;;;;5051462;28;20435;-77
2023/09/14 07:38:32;;;;;;;3.00;2.80;;;24.90;54.70;;;;;;5051440;28;20421;-78
2023/09/14 07:41:01;;;;;;;3.47;2.60;;;24.90;54.60;;;;;;5050305;28;20522;-77
2023/09/14 07:43:28;;;;;;;3.27;3.00;;;24.90;54.80;;;;;;5051378;28;21001;-77
2023/09/14 07:45:57;;;;;;;3.10;2.80;;;25.00;54.60;;;;;;5051742;28;20439;-77
2023/09/14 07:48:26;;;;;;;2.53;2.33;;;25.00;54.50;;;;;;5051364;28;20477;-77
2023/09/14 07:50:54;;;;;;;3.63;3.00;;;25.00;54.60;;;;;;5050637;28;20443;-78
2023/09/14 07:53:22;;;;;;;3.47;3.27;;;25.00;54.80;;;;;;5050973;28;20449;-78
2023/09/14 07:55:53;;;;;;;2.90;2.70;;;25.00;54.50;;;;;;5051087;28;20449;-75
2023/09/14 07:58:21;;;;;;;2.87;2.67;;;25.00;54.40;;;;;;5051222;28;20417;-76
2023/09/14 08:00:50;;;;;;;4.83;2.57;;;25.00;54.50;;;;;;5051599;28;20475;-75
2023/09/14 08:03:18;;;;;;;2.80;2.60;;;25.10;54.50;;;;;;5051303;28;20512;-75
2023/09/14 08:05:47;;;;;;;2.93;2.63;;;25.10;54.60;;;;;;5050798;28;20552;-76
2023/09/14 08:08:15;;;;;;;2.97;2.77;;;25.10;54.50;;;;;;5050772;28;20446;-75
2023/09/14 08:10:48;;;;;;;3.37;2.70;;;25.20;54.40;;;;;;5050260;28;20506;-79
2023/09/14 08:13:17;;;;;;;2.70;2.50;;;25.20;54.40;;;;;;5050674;28;20558;-76
2023/09/14 08:15:44;;;;;;;3.23;2.93;;;25.20;54.30;;;;;;5050699;28;20439;-75
2023/09/14 08:18:13;;;;;;;2.40;2.30;;;25.20;54.30;;;;;;5050779;28;20446;-78
2023/09/14 08:20:42;;;;;;;2.47;2.37;;;25.20;54.50;;;;;;5050463;28;20523;-77
2023/09/14 08:23:12;;;;;;;2.60;2.33;;;25.30;54.30;;;;;;5050361;28;20433;-76
2023/09/14 08:25:43;;;;;;;2.77;2.30;;;25.30;54.20;;;;;;5050474;28;20533;-76
2023/09/14 08:28:13;;;;;;;2.43;2.30;;;25.30;54.20;;;;;;5050390;28;20456;-76
2023/09/14 08:30:41;;;;;;;3.00;2.80;;;25.40;54.20;;;;;;5050671;28;20434;-77
2023/09/14 08:33:10;;;;;;;2.40;2.30;;;25.40;54.20;;;;;;5050271;28;20507;-75
2023/09/14 08:35:41;;;;;;;2.50;2.40;;;25.40;54.20;;;;;;5050445;28;20417;-75
2023/09/14 08:38:10;;;;;;;3.07;2.53;;;25.50;54.10;;;;;;5050242;28;20508;-76
2023/09/14 08:40:39;;;;;;;2.70;2.50;;;25.50;54.20;;;;;;5050441;28;20466;-75
2023/09/14 08:43:10;;;;;;;2.47;2.30;;;25.60;54.80;;;;;;5050087;28;20433;-76
2023/09/14 08:45:38;;;;;;;4.70;2.63;;;25.70;54.10;;;;;;5050438;28;20454;-76
2023/09/14 08:48:06;;;;;;;2.80;2.63;;;25.70;54.10;;;;;;5050428;28;20417;-76
2023/09/14 08:50:35;;;;;;;2.50;2.40;;;25.70;53.90;;;;;;5050288;28;20941;-75
2023/09/14 08:53:03;;;;;;;2.97;2.70;;;25.80;53.90;;;;;;5050495;28;20525;-75
2023/09/14 08:55:34;;;;;;;4.60;2.53;;;25.90;53.90;;;;;;5054170;28;20458;-75
2023/09/14 08:58:04;;;;;;;3.03;2.83;;;25.90;53.80;;;;;;5054599;28;20475;-76
2023/09/14 09:00:32;;;;;;;2.80;2.60;;;26.00;53.80;;;;;;5053989;28;20453;-76
2023/09/14 09:03:01;;;;;;;2.90;2.60;;;26.10;53.70;;;;;;5055139;28;20460;-76
2023/09/14 09:05:29;;;;;;;3.13;2.93;;;26.20;53.70;;;;;;5054720;28;20862;-76
2023/09/14 09:07:58;;;;;;;2.50;2.30;;;26.40;53.60;;;;;;5053903;28;20425;-75
2023/09/14 09:10:27;;;;;;;3.20;2.90;;;26.50;53.30;;;;;;5053780;28;20508;-74
2023/09/14 09:12:58;;;;;;;2.60;2.50;;;26.60;53.20;;;;;;5053680;28;20478;-76
2023/09/14 09:15:32;;;;;;;3.27;2.97;;;26.80;53.20;;;;;;5053587;28;20453;-75
2023/09/14 09:18:04;;;;;;;2.63;2.53;;;27.00;52.80;;;;;;5053686;28;20442;-76
2023/09/14 09:20:33;;;;;;;3.13;2.83;;;27.20;52.70;;;;;;5053588;28;20412;-76
2023/09/14 09:23:01;;;;;;;2.70;2.53;;;27.30;52.60;;;;;;5053222;28;20459;-79
2023/09/14 09:25:30;;;;;;;3.47;3.20;;;27.50;52.40;;;;;;5053427;28;20438;-78
2023/09/14 09:27:58;;;;;;;2.97;2.67;;;27.70;52.10;;;;;;5057056;28;20510;-78
2023/09/14 09:30:31;;;;;;;2.57;2.47;;;27.80;51.80;;;;;;5053968;28;20592;-78
2023/09/14 09:33:04;;;;;;;2.53;2.33;;;27.90;51.70;;;;;;5053921;28;20552;-79
2023/09/14 09:35:34;;;;;;;3.20;2.80;;;28.10;51.60;;;;;;5053907;28;20425;-78
2023/09/14 09:38:13;;;;;;;2.90;2.70;;;28.20;51.30;;;;;;5053747;28;20500;-79
2023/09/14 09:40:42;;;;;;;2.63;2.30;;;28.30;51.20;;;;;;5053743;28;20500;-78
2023/09/14 09:43:14;;;;;;;2.70;2.50;;;28.40;51.00;;;;;;5053890;28;20505;-77
2023/09/14 09:45:44;;;;;;;2.50;1.93;;;28.40;50.70;;;;;;5053842;28;20465;-78
2023/09/14 09:48:12;;;;;;;3.50;3.00;;;28.50;50.60;;;;;;5053879;28;20442;-77
2023/09/14 09:50:40;;;;;;;2.70;2.50;;;28.50;50.50;;;;;;5053187;28;20447;-78
2023/09/14 09:53:13;;;;;;;2.30;2.20;;;28.50;50.40;;;;;;5053320;28;20480;-77
2023/09/14 09:55:42;;;;;;;2.10;2.00;;;28.60;50.40;;;;;;5053075;28;20425;-78
2023/09/14 09:58:10;;;;;;;2.17;2.00;;;28.60;50.40;;;;;;5053302;28;20451;-77
2023/09/14 10:00:39;;;;;;;3.83;2.17;;;28.60;50.50;;;;;;5053051;28;20447;-78
2023/09/14 10:03:09;;;;;;;2.80;2.60;;;28.60;50.50;;;;;;5053036;28;20439;-78
2023/09/14 10:05:38;;;;;;;2.30;2.20;;;28.60;50.50;;;;;;5052655;28;20933;-78
2023/09/14 10:08:11;;;;;;;2.70;2.10;;;28.60;50.50;;;;;;5053396;28;20521;-77
2023/09/14 10:10:39;;;;;;;2.63;2.43;;;28.60;50.60;;;;;;5052955;28;20481;-78
2023/09/14 10:13:08;;;;;;;3.17;2.50;;;28.50;50.50;;;;;;5052626;28;20498;-76
2023/09/14 10:15:36;;;;;;;3.13;2.30;;;28.50;50.60;;;;;;5052762;28;20443;-78
2023/09/14 10:18:04;;;;;;;3.23;2.60;;;28.40;50.70;;;;;;5052376;28;20465;-79
2023/09/14 10:20:34;;;;;;;2.83;2.70;;;28.40;50.80;;;;;;5052716;28;20455;-77
2023/09/14 10:23:02;;;;;;;2.63;2.50;;;28.40;50.90;;;;;;5052840;28;20456;-77
2023/09/14 10:25:30;;;;;;;2.67;2.53;;;28.30;50.80;;;;;;5052858;28;20474;-76
2023/09/14 10:27:59;;;;;;;2.40;2.27;;;28.30;50.80;;;;;;5052486;28;20501;-77
2023/09/14 10:30:28;;;;;;;3.57;2.83;;;28.20;50.90;;;;;;5052685;28;20425;-77
2023/09/14 10:32:57;;;;;;;3.20;2.93;;;28.20;51.00;;;;;;5052285;28;20481;-77
2023/09/14 10:35:26;;;;;;;3.07;2.87;;;28.20;51.00;;;;;;5052627;28;20421;-78
2023/09/14 10:37:56;;;;;;;3.43;3.23;;;28.20;51.00;;;;;;5052414;28;20449;-77
2023/09/14 10:40:25;;;;;;;3.07;2.87;;;28.20;51.10;;;;;;5052310;28;20427;-75
2023/09/14 10:42:53;;;;;;;3.50;3.30;;;28.20;50.90;;;;;;5052286;28;20446;-77
2023/09/14 10:45:24;;;;;;;3.70;3.40;;;28.30;51.00;;;;;;5052180;28;20443;-77
2023/09/14 10:47:53;;;;;;;3.50;3.23;;;28.30;50.70;;;;;;5052265;28;20446;-77
2023/09/14 10:50:21;;;;;;;3.63;3.30;;;28.30;50.60;;;;;;5052604;28;20442;-76
2023/09/14 10:52:49;;;;;;;3.00;2.80;;;28.40;50.60;;;;;;5051825;28;20544;-76
2023/09/14 10:55:19;;;;;;;3.30;3.10;;;28.40;50.50;;;;;;5052180;28;20447;-77
2023/09/14 10:57:47;;;;;;;2.80;2.60;;;28.40;50.40;;;;;;5052495;28;20446;-77
2023/09/14 11:00:31;;;;;;;3.10;3.00;;;28.50;50.40;;;;;;5051781;28;20427;-78
2023/09/14 11:03:19;;;;;;;3.47;3.20;;;28.50;50.20;;;;;;5052521;28;20450;-77
2023/09/14 11:05:52;;;;;;;3.10;2.80;;;28.50;50.20;;;;;;5052218;28;20949;-78
2023/09/14 11:08:27;;;;;;;3.67;2.73;;;28.50;50.10;;;;;;5052572;28;20995;-78
2023/09/14 11:11:00;;;;;;;3.43;3.20;;;28.50;50.20;;;;;;5052249;28;20438;-78
2023/09/14 11:13:33;;;;;;;2.57;2.47;;;28.50;50.20;;;;;;5052609;28;20493;-79
2023/09/14 11:16:16;;;;;;;3.47;2.80;;;28.50;50.20;;;;;;5051980;28;20443;-77
2023/09/14 11:18:52;;;;;;;3.43;3.23;;;28.50;50.30;;;;;;5052249;28;20425;-78
2023/09/14 11:21:44;;;;;;;2.90;2.77;;;28.50;50.20;;;;;;5052558;28;20427;-78
2023/09/14 11:24:13;;;;;;;3.37;3.17;;;28.50;50.30;;;;;;5052118;28;20987;-79
2023/09/14 11:26:46;;;;;;;3.23;3.10;;;28.50;50.20;;;;;;5052061;28;20924;-78
2023/09/14 11:29:17;;;;;;;3.83;3.53;;;28.50;50.20;;;;;;5052337;28;20474;-78
2023/09/14 11:31:55;;;;;;;3.70;3.50;;;28.60;50.20;;;;;;5052043;28;20516;-79
2023/09/14 11:34:32;;;;;;;3.97;3.60;;;28.60;50.10;;;;;;5051746;28;20478;-78
2023/09/14 11:37:03;;;;;;;3.47;3.27;;;28.90;50.60;;;;;;5052105;28;20453;-77
2023/09/14 11:39:35;;;;;;;4.00;3.60;;;29.00;49.60;;;;;;5052062;28;20941;-78
2023/09/14 11:42:07;;;;;;;3.17;2.97;;;29.00;49.50;;;;;;5051763;28;20421;-78
2023/09/14 11:44:46;;;;;;;3.00;2.80;;;29.00;49.50;;;;;;5051570;28;20524;-79
2023/09/14 11:47:20;;;;;;;3.80;3.50;;;29.00;49.40;;;;;;5051973;28;20461;-79
2023/09/14 11:49:53;;;;;;;4.63;3.30;;;28.90;49.40;;;;;;5051863;28;20496;-76
2023/09/14 11:52:21;;;;;;;3.80;2.80;;;28.90;49.30;;;;;;5051864;28;20431;-78
2023/09/14 11:54:51;;;;;;;3.73;3.53;;;28.80;49.30;;;;;;5051408;28;20570;-78
2023/09/14 11:57:26;;;;;;;3.00;2.80;;;28.80;49.30;;;;;;5051832;28;20537;-78
2023/09/14 11:59:55;;;;;;;3.40;3.10;;;28.80;49.40;;;;;;5051912;28;20440;-78
2023/09/14 12:02:22;;;;;;;3.20;3.00;;;28.70;49.40;;;;;;5051973;28;20439;-77
2023/09/14 12:04:51;;;;;;;3.50;3.20;;;28.70;49.40;;;;;;5051575;28;21023;-78
2023/09/14 12:07:21;;;;;;;3.37;3.07;;;28.70;49.40;;;;;;5051470;28;20446;-78
2023/09/14 12:09:50;;;;;;;3.77;2.90;;;28.70;49.40;;;;;;5051948;28;20446;-76
2023/09/14 12:12:27;;;;;;;3.47;3.17;;;28.70;49.40;;;;;;5051720;28;20457;-77
2023/09/14 12:14:57;;;;;;;3.30;3.10;;;28.70;49.30;;;;;;5050974;28;20474;-78
2023/09/14 12:17:26;;;;;;;3.40;3.10;;;28.60;49.30;;;;;;5051180;28;20442;-78
2023/09/14 12:19:56;;;;;;;4.60;3.10;;;28.70;49.30;;;;;;5050994;28;20442;-78
2023/09/14 12:22:25;;;;;;;3.70;3.07;;;28.70;49.30;;;;;;5050768;28;20785;-78
2023/09/14 12:24:54;;;;;;;3.37;3.17;;;28.70;49.30;;;;;;5050722;28;20513;-77
2023/09/14 12:27:21;;;;;;;3.43;3.13;;;28.70;49.10;;;;;;5051592;28;20436;-77
2023/09/14 12:29:51;;;;;;;3.07;2.87;;;28.80;49.20;;;;;;5054030;28;20436;-77
2023/09/14 12:32:19;;;;;;;3.37;3.10;;;29.10;49.50;;;;;;5054501;28;20858;-77
2023/09/14 12:34:48;;;;;;;3.00;2.80;;;29.50;48.90;;;;;;5054396;28;20536;-74
2023/09/14 12:37:17;;;;;;;4.30;3.13;;;29.90;48.50;;;;;;5054416;28;20481;-77
2023/09/14 12:39:51;;;;;;;3.17;2.97;;;30.40;47.80;;;;;;5054272;28;20446;-76
2023/09/14 12:42:20;;;;;;;2.93;2.70;;;30.40;46.70;;;;;;5054416;28;20457;-78
2023/09/14 12:44:50;;;;;;;2.87;2.67;;;30.70;47.00;;;;;;5054034;28;20470;-76
2023/09/14 12:47:18;;;;;;;3.03;2.60;;;31.00;46.40;;;;;;5054227;28;20541;-77
2023/09/14 12:49:47;;;;;;;2.90;2.70;;;31.40;46.20;;;;;;5053982;28;20454;-77
2023/09/14 12:52:15;;;;;;;2.57;2.33;;;31.70;45.70;;;;;;5054132;28;20445;-78
2023/09/14 12:54:43;;;;;;;2.60;2.40;;;32.00;45.00;;;;;;5053953;28;20474;-78
2023/09/14 12:57:12;;;;;;;2.50;2.40;;;32.20;44.40;;;;;;5054318;28;20442;-77